sensor_id;sensor_type;location;lat;lon;timestamp;pressure;altitude;pressure_sealevel;temperature;humidity
47726;BME280;33483;48.294;16.388;2024-01-30T00:00:53;101478.84;;;0.62;100.00
47726;BME280;33483;48.294;16.388;2024-01-30T00:03:40;101469.31;;;0.74;100.00
47726;BME280;33483;48.294;16.388;2024-01-30T00:06:10;101476.16;;;0.85;100.00
47726;BME280;33483;48.294;16.388;2024-01-30T00:08:37;101473.59;;;0.98;100.00
47726;BME280;33483;48.294;16.388;2024-01-30T00:11:04;101482.22;;;0.96;100.00
47726;BME280;33483;48.294;16.388;2024-01-30T00:13:31;101469.75;;;0.95;100.00
47726;BME280;33483;48.294;16.388;2024-01-30T00:15:58;101471.78;;;0.91;100.00
47726;BME280;33483;48.294;16.388;2024-01-30T00:18:25;101474.44;;;0.95;100.00
47726;BME280;33483;48.294;16.388;2024-01-30T00:20:55;101471.72;;;0.95;100.00
47726;BME280;33483;48.294;16.388;2024-01-30T00:23:22;101472.06;;;0.97;100.00
47726;BME280;33483;48.294;16.388;2024-01-30T00:25:49;101473.97;;;1.00;100.00
47726;BME280;33483;48.294;16.388;2024-01-30T00:28:16;101476.22;;;1.05;100.00
47726;BME280;33483;48.294;16.388;2024-01-30T00:30:44;101471.84;;;1.11;100.00
47726;BME280;33483;48.294;16.388;2024-01-30T00:33:11;101479.44;;;1.23;100.00
47726;BME280;33483;48.294;16.388;2024-01-30T00:35:38;101482.22;;;1.20;100.00
47726;BME280;33483;48.294;16.388;2024-01-30T00:38:05;101481.56;;;1.12;100.00
47726;BME280;33483;48.294;16.388;2024-01-30T00:40:36;101482.03;;;1.07;100.00
47726;BME280;33483;48.294;16.388;2024-01-30T00:43:03;101490.72;;;1.02;100.00
47726;BME280;33483;48.294;16.388;2024-01-30T00:45:30;101486.03;;;1.02;100.00
47726;BME280;33483;48.294;16.388;2024-01-30T00:48:00;101484.53;;;0.98;100.00
47726;BME280;33483;48.294;16.388;2024-01-30T00:50:27;101483.34;;;0.99;100.00
47726;BME280;33483;48.294;16.388;2024-01-30T00:52:54;101470.41;;;1.03;100.00
47726;BME280;33483;48.294;16.388;2024-01-30T00:55:22;101475.84;;;1.03;100.00
47726;BME280;33483;48.294;16.388;2024-01-30T00:57:49;101484.53;;;0.98;100.00
47726;BME280;33483;48.294;16.388;2024-01-30T01:00:17;101481.44;;;0.96;100.00
47726;BME280;33483;48.294;16.388;2024-01-30T01:02:44;101467.78;;;0.96;100.00
47726;BME280;33483;48.294;16.388;2024-01-30T01:05:14;101465.00;;;0.99;100.00
47726;BME280;33483;48.294;16.388;2024-01-30T01:07:41;101470.00;;;1.04;100.00
47726;BME280;33483;48.294;16.388;2024-01-30T01:10:12;101462.56;;;1.05;100.00
47726;BME280;33483;48.294;16.388;2024-01-30T01:12:40;101466.50;;;1.04;100.00
47726;BME280;33483;48.294;16.388;2024-01-30T01:15:07;101461.81;;;1.04;100.00
47726;BME280;33483;48.294;16.388;2024-01-30T01:17:40;101458.66;;;1.06;100.00
47726;BME280;33483;48.294;16.388;2024-01-30T01:20:08;101450.97;;;1.01;100.00
47726;BME280;33483;48.294;16.388;2024-01-30T01:22:37;101451.00;;;0.97;100.00
47726;BME280;33483;48.294;16.388;2024-01-30T01:25:08;101454.50;;;0.98;100.00
47726;BME280;33483;48.294;16.388;2024-01-30T01:27:36;101459.66;;;0.92;100.00
47726;BME280;33483;48.294;16.388;2024-01-30T01:30:11;101452.72;;;0.88;100.00
47726;BME280;33483;48.294;16.388;2024-01-30T01:32:38;101448.81;;;0.89;100.00
47726;BME280;33483;48.294;16.388;2024-01-30T01:35:06;101445.38;;;0.85;100.00
47726;BME280;33483;48.294;16.388;2024-01-30T01:37:33;101449.75;;;0.79;100.00
47726;BME280;33483;48.294;16.388;2024-01-30T01:40:00;101451.34;;;0.76;100.00
47726;BME280;33483;48.294;16.388;2024-01-30T01:42:27;101439.59;;;0.79;100.00
47726;BME280;33483;48.294;16.388;2024-01-30T01:44:55;101435.72;;;0.77;100.00
47726;BME280;33483;48.294;16.388;2024-01-30T01:47:22;101433.00;;;0.77;100.00
47726;BME280;33483;48.294;16.388;2024-01-30T01:49:49;101440.03;;;0.78;100.00
47726;BME280;33483;48.294;16.388;2024-01-30T01:52:16;101434.88;;;0.83;100.00
47726;BME280;33483;48.294;16.388;2024-01-30T01:54:44;101432.63;;;0.78;100.00
47726;BME280;33483;48.294;16.388;2024-01-30T01:57:11;101437.59;;;0.83;100.00
47726;BME280;33483;48.294;16.388;2024-01-30T01:59:38;101441.13;;;0.80;100.00
47726;BME280;33483;48.294;16.388;2024-01-30T02:02:05;101453.31;;;0.76;100.00
47726;BME280;33483;48.294;16.388;2024-01-30T02:04:35;101440.03;;;0.78;100.00
47726;BME280;33483;48.294;16.388;2024-01-30T02:07:03;101433.72;;;0.81;100.00
47726;BME280;33483;48.294;16.388;2024-01-30T02:09:30;101440.38;;;0.80;100.00
47726;BME280;33483;48.294;16.388;2024-01-30T02:11:57;101443.13;;;0.80;100.00
47726;BME280;33483;48.294;16.388;2024-01-30T02:14:27;101435.41;;;0.75;100.00
47726;BME280;33483;48.294;16.388;2024-01-30T02:16:59;101440.19;;;0.67;100.00
47726;BME280;33483;48.294;16.388;2024-01-30T02:19:26;101432.63;;;0.78;100.00
47726;BME280;33483;48.294;16.388;2024-01-30T02:21:53;101430.28;;;0.77;100.00
47726;BME280;33483;48.294;16.388;2024-01-30T02:24:21;101426.38;;;0.78;100.00
47726;BME280;33483;48.294;16.388;2024-01-30T02:26:48;101416.69;;;0.73;100.00
47726;BME280;33483;48.294;16.388;2024-01-30T02:29:15;101422.56;;;0.72;100.00
47726;BME280;33483;48.294;16.388;2024-01-30T02:31:42;101423.75;;;0.71;100.00
47726;BME280;33483;48.294;16.388;2024-01-30T02:34:09;101430.13;;;0.64;100.00
47726;BME280;33483;48.294;16.388;2024-01-30T02:36:36;101433.22;;;0.63;100.00
47726;BME280;33483;48.294;16.388;2024-01-30T02:39:04;101428.19;;;0.61;100.00
47726;BME280;33483;48.294;16.388;2024-01-30T02:41:34;101424.78;;;0.57;100.00
47726;BME280;33483;48.294;16.388;2024-01-30T02:44:04;101430.22;;;0.57;100.00
47726;BME280;33483;48.294;16.388;2024-01-30T02:46:31;101433.69;;;0.58;100.00
47726;BME280;33483;48.294;16.388;2024-01-30T02:48:58;101431.81;;;0.55;100.00
47726;BME280;33483;48.294;16.388;2024-01-30T02:51:25;101433.31;;;0.59;100.00
47726;BME280;33483;48.294;16.388;2024-01-30T02:53:52;101431.41;;;0.56;100.00
47726;BME280;33483;48.294;16.388;2024-01-30T02:56:19;101429.13;;;0.51;100.00
47726;BME280;33483;48.294;16.388;2024-01-30T02:58:49;101430.75;;;0.49;100.00
47726;BME280;33483;48.294;16.388;2024-01-30T03:01:16;101429.09;;;0.55;100.00
47726;BME280;33483;48.294;16.388;2024-01-30T03:03:43;101420.97;;;0.51;100.00
47726;BME280;33483;48.294;16.388;2024-01-30T03:06:10;101416.69;;;0.50;100.00
47726;BME280;33483;48.294;16.388;2024-01-30T03:08:39;101418.16;;;0.55;100.00
47726;BME280;33483;48.294;16.388;2024-01-30T03:11:05;101416.53;;;0.61;100.00
47726;BME280;33483;48.294;16.388;2024-01-30T03:13:33;101410.34;;;0.57;100.00
47726;BME280;33483;48.294;16.388;2024-01-30T03:16:00;101416.28;;;0.52;100.00
47726;BME280;33483;48.294;16.388;2024-01-30T03:18:27;101412.66;;;0.58;100.00
47726;BME280;33483;48.294;16.388;2024-01-30T03:20:54;101409.25;;;0.51;100.00
47726;BME280;33483;48.294;16.388;2024-01-30T03:23:21;101409.22;;;0.54;100.00
47726;BME280;33483;48.294;16.388;2024-01-30T03:25:48;101404.16;;;0.53;100.00
47726;BME280;33483;48.294;16.388;2024-01-30T03:28:15;101411.72;;;0.45;100.00
47726;BME280;33483;48.294;16.388;2024-01-30T03:30:42;101412.88;;;0.44;100.00
47726;BME280;33483;48.294;16.388;2024-01-30T03:33:09;101410.63;;;0.39;100.00
47726;BME280;33483;48.294;16.388;2024-01-30T03:35:36;101411.00;;;0.41;100.00
47726;BME280;33483;48.294;16.388;2024-01-30T03:38:04;101411.09;;;0.34;100.00
47726;BME280;33483;48.294;16.388;2024-01-30T03:40:33;101407.22;;;0.32;100.00
47726;BME280;33483;48.294;16.388;2024-01-30T03:43:00;101412.34;;;0.30;100.00
47726;BME280;33483;48.294;16.388;2024-01-30T03:45:27;101408.88;;;0.26;100.00
47726;BME280;33483;48.294;16.388;2024-01-30T03:47:57;101408.53;;;0.24;100.00
47726;BME280;33483;48.294;16.388;2024-01-30T03:50:24;101406.72;;;0.14;100.00
47726;BME280;33483;48.294;16.388;2024-01-30T03:52:51;101403.91;;;0.21;100.00
47726;BME280;33483;48.294;16.388;2024-01-30T03:55:18;101419.00;;;0.25;100.00
47726;BME280;33483;48.294;16.388;2024-01-30T03:57:46;101419.88;;;0.19;100.00
47726;BME280;33483;48.294;16.388;2024-01-30T04:00:13;101413.34;;;0.13;100.00
47726;BME280;33483;48.294;16.388;2024-01-30T04:02:41;101427.03;;;0.09;100.00
47726;BME280;33483;48.294;16.388;2024-01-30T04:05:08;101423.19;;;0.07;100.00
47726;BME280;33483;48.294;16.388;2024-01-30T04:07:36;101420.56;;;-0.01;100.00
47726;BME280;33483;48.294;16.388;2024-01-30T04:10:03;101417.47;;;-0.03;100.00
47726;BME280;33483;48.294;16.388;2024-01-30T04:12:35;101413.25;;;-0.07;100.00
47726;BME280;33483;48.294;16.388;2024-01-30T04:15:02;101409.31;;;-0.06;100.00
47726;BME280;33483;48.294;16.388;2024-01-30T04:17:30;101413.53;;;-0.02;100.00
47726;BME280;33483;48.294;16.388;2024-01-30T04:19:57;101408.44;;;0.00;100.00
47726;BME280;33483;48.294;16.388;2024-01-30T04:22:24;101399.41;;;0.07;100.00
47726;BME280;33483;48.294;16.388;2024-01-30T04:24:52;101406.47;;;0.05;100.00
47726;BME280;33483;48.294;16.388;2024-01-30T04:27:19;101403.31;;;0.06;100.00
47726;BME280;33483;48.294;16.388;2024-01-30T04:29:46;101406.81;;;0.07;100.00
47726;BME280;33483;48.294;16.388;2024-01-30T04:32:13;101405.31;;;0.02;100.00
47726;BME280;33483;48.294;16.388;2024-01-30T04:34:43;101403.84;;;-0.03;100.00
47726;BME280;33483;48.294;16.388;2024-01-30T04:37:10;101407.34;;;-0.02;100.00
47726;BME280;33483;48.294;16.388;2024-01-30T04:39:37;101403.41;;;-0.01;100.00
47726;BME280;33483;48.294;16.388;2024-01-30T04:42:08;101409.19;;;0.05;100.00
47726;BME280;33483;48.294;16.388;2024-01-30T04:44:35;101401.41;;;0.03;100.00
47726;BME280;33483;48.294;16.388;2024-01-30T04:47:02;101402.53;;;0.06;100.00
47726;BME280;33483;48.294;16.388;2024-01-30T04:49:30;101406.81;;;0.07;100.00
47726;BME280;33483;48.294;16.388;2024-01-30T04:51:57;101423.63;;;0.02;100.00
47726;BME280;33483;48.294;16.388;2024-01-30T04:54:24;101410.81;;;-0.02;100.00
47726;BME280;33483;48.294;16.388;2024-01-30T04:56:51;101418.28;;;-0.06;100.00
47726;BME280;33483;48.294;16.388;2024-01-30T04:59:18;101419.50;;;-0.10;100.00
47726;BME280;33483;48.294;16.388;2024-01-30T05:01:46;101408.28;;;-0.16;100.00
47726;BME280;33483;48.294;16.388;2024-01-30T05:04:13;101403.28;;;-0.21;100.00
47726;BME280;33483;48.294;16.388;2024-01-30T05:06:43;101411.09;;;-0.23;100.00
47726;BME280;33483;48.294;16.388;2024-01-30T05:09:12;101408.44;;;-0.30;100.00
47726;BME280;33483;48.294;16.388;2024-01-30T05:11:40;101417.06;;;-0.35;100.00
47726;BME280;33483;48.294;16.388;2024-01-30T05:14:07;101421.44;;;-0.41;100.00
47726;BME280;33483;48.294;16.388;2024-01-30T05:16:35;101419.06;;;-0.35;100.00
47726;BME280;33483;48.294;16.388;2024-01-30T05:19:02;101425.53;;;-0.26;100.00
47726;BME280;33483;48.294;16.388;2024-01-30T05:21:30;101422.56;;;-0.38;100.00
47726;BME280;33483;48.294;16.388;2024-01-30T05:23:57;101419.50;;;-0.40;100.00
47726;BME280;33483;48.294;16.388;2024-01-30T05:26:24;101429.56;;;-0.37;100.00
47726;BME280;33483;48.294;16.388;2024-01-30T05:28:51;101432.25;;;-0.34;100.00
47726;BME280;33483;48.294;16.388;2024-01-30T05:31:18;101428.75;;;-0.34;100.00
47726;BME280;33483;48.294;16.388;2024-01-30T05:33:46;101438.91;;;-0.38;100.00
47726;BME280;33483;48.294;16.388;2024-01-30T05:36:13;101431.59;;;-0.45;100.00
47726;BME280;33483;48.294;16.388;2024-01-30T05:38:40;101417.56;;;-0.43;100.00
47726;BME280;33483;48.294;16.388;2024-01-30T05:41:08;101422.66;;;-0.45;100.00
47726;BME280;33483;48.294;16.388;2024-01-30T05:43:37;101415.28;;;-0.48;100.00
47726;BME280;33483;48.294;16.388;2024-01-30T05:46:04;101417.19;;;-0.45;100.00
47726;BME280;33483;48.294;16.388;2024-01-30T05:48:31;101423.47;;;-0.48;100.00
47726;BME280;33483;48.294;16.388;2024-01-30T05:50:58;101425.06;;;-0.51;100.00
47726;BME280;33483;48.294;16.388;2024-01-30T05:53:28;101429.72;;;-0.51;100.00
47726;BME280;33483;48.294;16.388;2024-01-30T05:55:55;101429.72;;;-0.51;100.00
47726;BME280;33483;48.294;16.388;2024-01-30T05:58:22;101419.66;;;-0.54;100.00
47726;BME280;33483;48.294;16.388;2024-01-30T06:00:49;101422.44;;;-0.58;100.00
47726;BME280;33483;48.294;16.388;2024-01-30T06:03:16;101433.69;;;-0.59;100.00
47726;BME280;33483;48.294;16.388;2024-01-30T06:05:46;101427.56;;;-0.67;100.00
47726;BME280;33483;48.294;16.388;2024-01-30T06:08:15;101431.13;;;-0.70;100.00
47726;BME280;33483;48.294;16.388;2024-01-30T06:10:42;101435.81;;;-0.74;100.00
47726;BME280;33483;48.294;16.388;2024-01-30T06:13:09;101433.09;;;-0.74;100.00
47726;BME280;33483;48.294;16.388;2024-01-30T06:15:37;101438.56;;;-0.77;100.00
47726;BME280;33483;48.294;16.388;2024-01-30T06:18:03;101436.28;;;-0.82;100.00
47726;BME280;33483;48.294;16.388;2024-01-30T06:20:31;101433.25;;;-0.91;100.00
47726;BME280;33483;48.294;16.388;2024-01-30T06:22:58;101444.13;;;-0.88;100.00
47726;BME280;33483;48.294;16.388;2024-01-30T06:25:26;101442.66;;;-0.96;100.00
47726;BME280;33483;48.294;16.388;2024-01-30T06:27:53;101444.19;;;-0.95;100.00
47726;BME280;33483;48.294;16.388;2024-01-30T06:30:20;101445.72;;;-0.94;100.00
47726;BME280;33483;48.294;16.388;2024-01-30T06:32:47;101448.88;;;-0.99;100.00
47726;BME280;33483;48.294;16.388;2024-01-30T06:35:15;101451.94;;;-0.93;100.00
47726;BME280;33483;48.294;16.388;2024-01-30T06:37:44;101453.13;;;-0.94;100.00
47726;BME280;33483;48.294;16.388;2024-01-30T06:40:12;101447.50;;;-0.77;100.00
47726;BME280;33483;48.294;16.388;2024-01-30T06:42:39;101445.34;;;-0.55;100.00
47726;BME280;33483;48.294;16.388;2024-01-30T06:45:06;101450.47;;;-0.27;100.00
47726;BME280;33483;48.294;16.388;2024-01-30T06:47:34;101455.69;;;-0.10;100.00
47726;BME280;33483;48.294;16.388;2024-01-30T06:50:02;101465.13;;;0.13;100.00
47726;BME280;33483;48.294;16.388;2024-01-30T06:52:30;101462.50;;;0.36;100.00
47726;BME280;33483;48.294;16.388;2024-01-30T06:54:57;101471.56;;;0.56;100.00
47726;BME280;33483;48.294;16.388;2024-01-30T06:57:25;101469.78;;;0.42;100.00
47726;BME280;33483;48.294;16.388;2024-01-30T06:59:55;101477.50;;;0.47;100.00
47726;BME280;33483;48.294;16.388;2024-01-30T07:02:22;101480.09;;;0.58;100.00
47726;BME280;33483;48.294;16.388;2024-01-30T07:04:49;101476.91;;;0.86;100.00
47726;BME280;33483;48.294;16.388;2024-01-30T07:07:16;101473.50;;;1.05;100.00
47726;BME280;33483;48.294;16.388;2024-01-30T07:09:44;101474.50;;;1.38;100.00
47726;BME280;33483;48.294;16.388;2024-01-30T07:12:11;101477.81;;;1.88;100.00
47726;BME280;33483;48.294;16.388;2024-01-30T07:14:38;101485.72;;;2.73;100.00
47726;BME280;33483;48.294;16.388;2024-01-30T07:17:06;101487.81;;;3.75;100.00
47726;BME280;33483;48.294;16.388;2024-01-30T07:19:34;101501.13;;;4.55;100.00
47726;BME280;33483;48.294;16.388;2024-01-30T07:22:01;101501.53;;;5.16;100.00
47726;BME280;33483;48.294;16.388;2024-01-30T07:24:29;101517.28;;;5.84;100.00
47726;BME280;33483;48.294;16.388;2024-01-30T07:26:56;101514.34;;;5.79;100.00
47726;BME280;33483;48.294;16.388;2024-01-30T07:29:24;101511.03;;;5.84;100.00
47726;BME280;33483;48.294;16.388;2024-01-30T07:31:54;101505.75;;;5.42;100.00
47726;BME280;33483;48.294;16.388;2024-01-30T07:34:21;101505.41;;;5.53;100.00
47726;BME280;33483;48.294;16.388;2024-01-30T07:36:48;101519.94;;;4.69;100.00
47726;BME280;33483;48.294;16.388;2024-01-30T07:39:17;101507.22;;;4.09;100.00
47726;BME280;33483;48.294;16.388;2024-01-30T07:41:44;101503.28;;;3.53;100.00
47726;BME280;33483;48.294;16.388;2024-01-30T07:44:11;101499.41;;;3.21;100.00
47726;BME280;33483;48.294;16.388;2024-01-30T07:46:38;101500.75;;;3.74;100.00
47726;BME280;33483;48.294;16.388;2024-01-30T07:49:05;101503.78;;;5.43;100.00
47726;BME280;33483;48.294;16.388;2024-01-30T07:51:32;101503.94;;;6.47;100.00
47726;BME280;33483;48.294;16.388;2024-01-30T07:53:59;101512.44;;;7.11;82.87
47726;BME280;33483;48.294;16.388;2024-01-30T07:56:27;101517.13;;;7.86;73.90
47726;BME280;33483;48.294;16.388;2024-01-30T07:58:54;101522.53;;;8.49;69.88
47726;BME280;33483;48.294;16.388;2024-01-30T08:01:24;101529.16;;;9.17;67.69
47726;BME280;33483;48.294;16.388;2024-01-30T08:03:51;101535.31;;;9.45;63.47
47726;BME280;33483;48.294;16.388;2024-01-30T08:06:18;101526.69;;;8.95;61.59
47726;BME280;33483;48.294;16.388;2024-01-30T08:08:46;101533.16;;;9.40;61.39
47726;BME280;33483;48.294;16.388;2024-01-30T08:11:16;101540.13;;;9.59;59.01
47726;BME280;33483;48.294;16.388;2024-01-30T08:13:43;101543.84;;;8.58;60.48
47726;BME280;33483;48.294;16.388;2024-01-30T08:16:10;101535.06;;;7.99;63.85
47726;BME280;33483;48.294;16.388;2024-01-30T08:18:41;101534.72;;;8.16;64.13
47726;BME280;33483;48.294;16.388;2024-01-30T08:21:08;101533.22;;;7.87;64.99
47726;BME280;33483;48.294;16.388;2024-01-30T08:23:38;101533.34;;;7.48;66.79
47726;BME280;33483;48.294;16.388;2024-01-30T08:26:06;101542.16;;;7.16;68.54
47726;BME280;33483;48.294;16.388;2024-01-30T08:28:33;101531.63;;;6.74;73.19
47726;BME280;33483;48.294;16.388;2024-01-30T08:31:00;101532.19;;;6.39;75.53
47726;BME280;33483;48.294;16.388;2024-01-30T08:33:27;101535.50;;;6.55;76.92
47726;BME280;33483;48.294;16.388;2024-01-30T08:35:57;101530.63;;;6.07;81.09
47726;BME280;33483;48.294;16.388;2024-01-30T08:38:24;101531.22;;;5.68;88.00
47726;BME280;33483;48.294;16.388;2024-01-30T08:40:51;101533.50;;;5.69;88.27
47726;BME280;33483;48.294;16.388;2024-01-30T08:43:18;101533.44;;;5.60;88.23
47726;BME280;33483;48.294;16.388;2024-01-30T08:45:46;101537.81;;;5.58;92.64
47726;BME280;33483;48.294;16.388;2024-01-30T08:48:13;101529.44;;;5.40;95.66
47726;BME280;33483;48.294;16.388;2024-01-30T08:50:40;101526.81;;;5.58;97.71
47726;BME280;33483;48.294;16.388;2024-01-30T08:53:07;101522.97;;;5.68;99.83
47726;BME280;33483;48.294;16.388;2024-01-30T08:55:34;101527.47;;;5.62;96.23
47726;BME280;33483;48.294;16.388;2024-01-30T08:58:01;101527.50;;;5.49;95.19
47726;BME280;33483;48.294;16.388;2024-01-30T09:00:33;101527.81;;;5.30;96.50
47726;BME280;33483;48.294;16.388;2024-01-30T09:03:00;101518.19;;;5.47;99.37
47726;BME280;33483;48.294;16.388;2024-01-30T09:05:28;101523.69;;;5.47;100.00
47726;BME280;33483;48.294;16.388;2024-01-30T09:07:55;101523.66;;;5.59;100.00
47726;BME280;33483;48.294;16.388;2024-01-30T09:10:22;101522.84;;;5.25;99.59
47726;BME280;33483;48.294;16.388;2024-01-30T09:12:49;101524.69;;;5.40;99.88
47726;BME280;33483;48.294;16.388;2024-01-30T09:15:17;101530.00;;;5.35;100.00
47726;BME280;33483;48.294;16.388;2024-01-30T09:17:45;101524.03;;;5.49;99.33
47726;BME280;33483;48.294;16.388;2024-01-30T09:20:12;101522.78;;;5.50;100.00
47726;BME280;33483;48.294;16.388;2024-01-30T09:22:39;101525.13;;;5.39;97.23
47726;BME280;33483;48.294;16.388;2024-01-30T09:25:09;101533.94;;;5.34;99.68
47726;BME280;33483;48.294;16.388;2024-01-30T09:27:36;101534.50;;;5.29;97.28
47726;BME280;33483;48.294;16.388;2024-01-30T09:30:04;101529.63;;;5.45;100.00
47726;BME280;33483;48.294;16.388;2024-01-30T09:32:31;101534.25;;;5.48;94.95
47726;BME280;33483;48.294;16.388;2024-01-30T09:34:58;101524.69;;;5.40;92.72
47726;BME280;33483;48.294;16.388;2024-01-30T09:37:28;101529.88;;;5.38;94.48
47726;BME280;33483;48.294;16.388;2024-01-30T09:39:55;101531.41;;;5.39;93.38
47726;BME280;33483;48.294;16.388;2024-01-30T09:44:56;101527.94;;;5.26;97.06
47726;BME280;33483;48.294;16.388;2024-01-30T09:47:28;101521.44;;;5.20;94.82
47726;BME280;33483;48.294;16.388;2024-01-30T09:50:00;101525.41;;;5.07;96.33
47726;BME280;33483;48.294;16.388;2024-01-30T09:52:28;101519.22;;;5.28;96.50
47726;BME280;33483;48.294;16.388;2024-01-30T09:54:59;101524.97;;;5.21;96.47
47726;BME280;33483;48.294;16.388;2024-01-30T09:57:26;101520.84;;;5.38;94.16
47726;BME280;33483;48.294;16.388;2024-01-30T09:59:54;101519.50;;;5.42;94.44
47726;BME280;33483;48.294;16.388;2024-01-30T10:02:21;101520.75;;;5.29;96.61
47726;BME280;33483;48.294;16.388;2024-01-30T10:04:49;101519.91;;;5.53;99.65
47726;BME280;33483;48.294;16.388;2024-01-30T10:07:17;101521.53;;;5.63;93.16
47726;BME280;33483;48.294;16.388;2024-01-30T10:09:47;101510.13;;;5.87;94.43
47726;BME280;33483;48.294;16.388;2024-01-30T10:12:14;101511.84;;;5.93;87.33
47726;BME280;33483;48.294;16.388;2024-01-30T10:14:42;101507.97;;;6.03;87.85
47726;BME280;33483;48.294;16.388;2024-01-30T10:17:10;101511.53;;;5.91;85.06
47726;BME280;33483;48.294;16.388;2024-01-30T10:19:50;101510.63;;;6.16;87.39
47726;BME280;33483;48.294;16.388;2024-01-30T10:22:18;101505.84;;;6.07;84.31
47726;BME280;33483;48.294;16.388;2024-01-30T10:24:46;101509.09;;;5.93;83.59
47726;BME280;33483;48.294;16.388;2024-01-30T10:27:15;101500.00;;;6.05;85.44
47726;BME280;33483;48.294;16.388;2024-01-30T10:29:42;101494.50;;;6.05;84.51
47726;BME280;33483;48.294;16.388;2024-01-30T10:32:17;101497.22;;;5.96;84.90
47726;BME280;33483;48.294;16.388;2024-01-30T10:34:44;101503.69;;;6.02;83.77
47726;BME280;33483;48.294;16.388;2024-01-30T10:37:12;101498.09;;;5.93;86.15
47726;BME280;33483;48.294;16.388;2024-01-30T10:39:43;101493.97;;;5.89;85.07
47726;BME280;33483;48.294;16.388;2024-01-30T10:42:14;101489.66;;;6.09;87.10
47726;BME280;33483;48.294;16.388;2024-01-30T10:44:52;101482.69;;;5.96;85.22
47726;BME280;33483;48.294;16.388;2024-01-30T10:47:25;101477.53;;;6.07;89.36
47726;BME280;33483;48.294;16.388;2024-01-30T10:49:54;101478.38;;;5.95;85.38
47726;BME280;33483;48.294;16.388;2024-01-30T10:52:22;101478.09;;;5.93;85.50
47726;BME280;33483;48.294;16.388;2024-01-30T10:54:50;101479.34;;;6.01;86.02
47726;BME280;33483;48.294;16.388;2024-01-30T10:57:18;101479.47;;;6.19;85.42
47726;BME280;33483;48.294;16.388;2024-01-30T10:59:45;101481.53;;;6.06;84.22
47726;BME280;33483;48.294;16.388;2024-01-30T11:02:16;101476.34;;;5.86;85.13
47726;BME280;33483;48.294;16.388;2024-01-30T11:04:45;101471.50;;;5.90;86.75
47726;BME280;33483;48.294;16.388;2024-01-30T11:09:53;101464.63;;;6.16;84.91
47726;BME280;33483;48.294;16.388;2024-01-30T11:12:24;101459.94;;;6.26;85.69
47726;BME280;33483;48.294;16.388;2024-01-30T11:17:50;101462.78;;;6.13;86.04
47726;BME280;33483;48.294;16.388;2024-01-30T11:22:56;101462.56;;;6.29;85.28
47726;BME280;33483;48.294;16.388;2024-01-30T11:25:29;101453.72;;;6.43;87.77
47726;BME280;33483;48.294;16.388;2024-01-30T11:27:57;101458.94;;;6.50;86.93
47726;BME280;33483;48.294;16.388;2024-01-30T11:30:26;101452.69;;;6.50;87.51
47726;BME280;33483;48.294;16.388;2024-01-30T11:33:04;101457.16;;;6.56;83.81
47726;BME280;33483;48.294;16.388;2024-01-30T11:35:33;101447.19;;;6.50;84.88
47726;BME280;33483;48.294;16.388;2024-01-30T11:38:01;101440.69;;;6.35;87.76
47726;BME280;33483;48.294;16.388;2024-01-30T11:40:29;101438.97;;;6.59;89.99
47726;BME280;33483;48.294;16.388;2024-01-30T11:42:58;101440.75;;;6.53;88.17
47726;BME280;33483;48.294;16.388;2024-01-30T11:45:26;101436.81;;;6.63;86.69
47726;BME280;33483;48.294;16.388;2024-01-30T11:47:53;101428.75;;;6.77;87.50
47726;BME280;33483;48.294;16.388;2024-01-30T11:50:20;101435.66;;;6.82;83.68
47726;BME280;33483;48.294;16.388;2024-01-30T11:52:50;101440.97;;;6.67;82.57
47726;BME280;33483;48.294;16.388;2024-01-30T11:55:17;101440.69;;;6.74;86.71
47726;BME280;33483;48.294;16.388;2024-01-30T11:57:45;101432.13;;;6.72;84.54
47726;BME280;33483;48.294;16.388;2024-01-30T12:00:15;101441.56;;;6.62;80.54
47726;BME280;33483;48.294;16.388;2024-01-30T12:02:43;101439.03;;;6.37;81.31
47726;BME280;33483;48.294;16.388;2024-01-30T12:05:11;101430.09;;;6.64;82.51
47726;BME280;33483;48.294;16.388;2024-01-30T12:07:38;101437.59;;;6.63;81.35
47726;BME280;33483;48.294;16.388;2024-01-30T12:10:05;101426.13;;;6.65;81.78
47726;BME280;33483;48.294;16.388;2024-01-30T12:12:34;101410.97;;;6.69;81.64
47726;BME280;33483;48.294;16.388;2024-01-30T12:15:02;101417.50;;;6.54;81.02
47726;BME280;33483;48.294;16.388;2024-01-30T12:17:32;101409.50;;;6.38;81.14
47726;BME280;33483;48.294;16.388;2024-01-30T12:20:10;101406.63;;;6.41;82.32
47726;BME280;33483;48.294;16.388;2024-01-30T12:22:41;101408.00;;;6.46;82.69
47726;BME280;33483;48.294;16.388;2024-01-30T12:25:11;101410.00;;;6.54;81.50
47726;BME280;33483;48.294;16.388;2024-01-30T12:27:39;101405.72;;;6.53;82.66
47726;BME280;33483;48.294;16.388;2024-01-30T12:30:07;101407.28;;;6.63;81.53
47726;BME280;33483;48.294;16.388;2024-01-30T12:32:39;101413.69;;;6.51;81.37
47726;BME280;33483;48.294;16.388;2024-01-30T12:35:09;101405.38;;;6.42;82.02
47726;BME280;33483;48.294;16.388;2024-01-30T12:37:37;101405.38;;;6.42;82.60
47726;BME280;33483;48.294;16.388;2024-01-30T12:40:05;101406.19;;;6.52;83.71
47726;BME280;33483;48.294;16.388;2024-01-30T12:42:36;101392.88;;;6.59;82.25
47726;BME280;33483;48.294;16.388;2024-01-30T12:45:08;101403.72;;;6.54;82.53
47726;BME280;33483;48.294;16.388;2024-01-30T12:47:38;101391.03;;;6.56;80.93
47726;BME280;33483;48.294;16.388;2024-01-30T12:50:05;101383.25;;;6.64;81.30
47726;BME280;33483;48.294;16.388;2024-01-30T12:52:33;101386.63;;;6.68;81.39
47726;BME280;33483;48.294;16.388;2024-01-30T12:55:01;101388.16;;;6.69;80.44
47726;BME280;33483;48.294;16.388;2024-01-30T12:57:31;101381.72;;;6.63;78.63